Terminal Aerodrome Forecast
Issued by NWS Denver/Boulder, CO

Home | Current Version | Previous Version | Text Only | Print | Product List | Glossary On
Versions: 1 2 3 4 5 6 7 8 9 10 11 12 13 14 15 16 17 18 19 20 21 22 23 24 25 26 27 28 29 30 31 32 33 34 35 36 37 38 39 40 41 42 43 44 45 46 47 48 49 50
754
FTUS45 KBOU 221453 AAA
TAFDEN
TAF AMD
KDEN 221453Z 2215/2318 24007KT P6SM SCT120 BKN200
     FM221630 30008KT P6SM FEW200
     FM221900 01007KT P6SM SCT200
     FM222200 06008KT P6SM SCT200
     FM230100 15010KT P6SM FEW120 BKN200
     FM230600 20012KT P6SM SCT060 OVC120
     FM231500 24013KT P6SM BKN100 OVC180=

USA.gov is the U.S. government's official web portal to all federal, state and local government web resources and services.